createdAt,value
2017-03-14T00:00:44.072Z,0
2017-03-14T00:01:44.112Z,0
2017-03-14T00:02:44.135Z,0
2017-03-14T00:03:44.170Z,0
2017-03-14T00:04:44.186Z,0
2017-03-14T00:05:44.197Z,0
2017-03-14T00:06:44.229Z,0
2017-03-14T00:07:44.310Z,0
2017-03-14T00:08:44.275Z,0
2017-03-14T00:09:44.311Z,0
2017-03-14T00:10:44.333Z,0
2017-03-14T00:11:44.363Z,0
2017-03-14T00:12:44.381Z,0
2017-03-14T00:13:44.409Z,0
2017-03-14T00:14:44.424Z,0
2017-03-14T00:15:44.461Z,0
2017-03-14T00:16:44.493Z,0
2017-03-14T00:17:44.544Z,0
2017-03-14T00:18:44.540Z,0
2017-03-14T00:19:44.561Z,0
2017-03-14T00:20:44.579Z,0
2017-03-14T00:21:44.614Z,0
2017-03-14T00:22:44.636Z,0
2017-03-14T00:23:44.656Z,0
2017-03-14T00:24:44.682Z,0
2017-03-14T00:25:44.708Z,0
2017-03-14T00:26:44.734Z,0
2017-03-14T00:27:44.767Z,0
2017-03-14T00:28:44.780Z,0
2017-03-14T00:29:44.832Z,0
2017-03-14T00:30:44.808Z,0
2017-03-14T00:31:44.859Z,0
2017-03-14T00:32:44.881Z,0
2017-03-14T00:33:44.917Z,0
2017-03-14T00:34:44.916Z,0
2017-03-14T00:35:44.955Z,0
2017-03-14T00:36:45.003Z,0
2017-03-14T00:37:45.011Z,0
2017-03-14T00:38:45.032Z,0
2017-03-14T00:39:45.033Z,0
2017-03-14T00:40:45.066Z,0
2017-03-14T00:41:45.093Z,0
2017-03-14T00:42:45.124Z,0
2017-03-14T00:43:45.150Z,0
2017-03-14T00:44:45.175Z,0
2017-03-14T00:45:45.197Z,0
2017-03-14T00:46:45.227Z,0
2017-03-14T00:47:45.225Z,0
2017-03-14T00:48:45.256Z,0
2017-03-14T00:49:45.323Z,0
2017-03-14T00:50:45.328Z,0
2017-03-14T00:51:45.357Z,0
2017-03-14T00:52:45.377Z,0
2017-03-14T00:53:45.437Z,0
2017-03-14T00:54:45.417Z,0
2017-03-14T00:55:45.449Z,0
2017-03-14T00:56:45.454Z,0
2017-03-14T00:57:45.500Z,0
2017-03-14T00:58:45.518Z,0
2017-03-14T00:59:45.531Z,0
2017-03-14T01:00:45.557Z,0
2017-03-14T01:01:45.571Z,0
2017-03-14T01:02:45.621Z,0
2017-03-14T01:03:45.637Z,0
2017-03-14T01:04:45.663Z,0
2017-03-14T01:05:45.700Z,0
2017-03-14T01:06:45.719Z,0
2017-03-14T01:07:45.744Z,0
2017-03-14T01:08:45.799Z,0
2017-03-14T01:09:45.775Z,0
2017-03-14T01:10:45.823Z,0
2017-03-14T01:11:45.837Z,0
2017-03-14T01:12:45.863Z,0
2017-03-14T01:13:45.881Z,0
2017-03-14T01:14:45.918Z,0
2017-03-14T01:15:45.934Z,0
2017-03-14T01:16:45.949Z,0
2017-03-14T01:17:45.984Z,0
2017-03-14T01:18:46.017Z,0
2017-03-14T01:19:46.059Z,0
2017-03-14T01:20:46.064Z,0
2017-03-14T01:21:46.088Z,0
2017-03-14T01:22:46.115Z,0
2017-03-14T01:23:46.135Z,0
2017-03-14T01:24:46.161Z,0
2017-03-14T01:25:46.186Z,0
2017-03-14T01:26:46.205Z,0
2017-03-14T01:27:46.236Z,0
2017-03-14T01:28:46.261Z,0
2017-03-14T01:29:46.296Z,0
2017-03-14T01:30:46.287Z,0
2017-03-14T01:31:46.345Z,0
2017-03-14T01:32:46.359Z,0
2017-03-14T01:33:46.415Z,0
2017-03-14T01:34:46.398Z,0
2017-03-14T01:35:46.445Z,0
2017-03-14T01:36:46.455Z,0
2017-03-14T01:37:46.488Z,0
2017-03-14T01:38:46.514Z,0
2017-03-14T01:39:46.535Z,0
2017-03-14T01:40:46.540Z,0
2017-03-14T01:41:46.585Z,0
2017-03-14T01:42:46.603Z,0
2017-03-14T01:43:46.633Z,0
2017-03-14T01:44:46.647Z,0
2017-03-14T01:45:46.678Z,0
2017-03-14T01:46:46.694Z,0
2017-03-14T01:47:46.729Z,0
2017-03-14T01:48:46.757Z,0
2017-03-14T01:49:46.777Z,0
2017-03-14T01:50:46.804Z,0
2017-03-14T01:51:46.837Z,0
2017-03-14T01:52:46.862Z,0
2017-03-14T01:53:46.910Z,0
2017-03-14T01:54:46.901Z,0
2017-03-14T01:55:46.931Z,0
2017-03-14T01:56:46.964Z,0
2017-03-14T01:57:46.980Z,0
2017-03-14T01:58:47.013Z,0
2017-03-14T01:59:47.052Z,0
2017-03-14T02:00:47.049Z,0
2017-03-14T02:01:47.081Z,0
2017-03-14T02:02:47.094Z,0
2017-03-14T02:03:47.117Z,0
2017-03-14T02:04:47.157Z,0
2017-03-14T02:05:47.196Z,0
2017-03-14T02:06:47.201Z,0
2017-03-14T02:07:47.230Z,0
2017-03-14T02:08:47.283Z,0
2017-03-14T02:09:47.377Z,0
2017-03-14T02:10:47.298Z,0
2017-03-14T02:11:47.323Z,0
2017-03-14T02:12:47.338Z,0
2017-03-14T02:13:47.378Z,0
2017-03-14T02:14:47.403Z,0
2017-03-14T02:15:47.430Z,0
2017-03-14T02:16:47.441Z,0
2017-03-14T02:17:47.459Z,0
2017-03-14T02:18:47.520Z,0
2017-03-14T02:19:47.533Z,0
2017-03-14T02:20:47.535Z,0
2017-03-14T02:21:47.580Z,0
2017-03-14T02:22:47.577Z,0
2017-03-14T02:23:47.614Z,0
2017-03-14T02:24:47.638Z,0
2017-03-14T02:25:47.667Z,0
2017-03-14T02:26:47.688Z,0
2017-03-14T02:27:47.718Z,0
2017-03-14T02:28:47.781Z,0
2017-03-14T02:29:47.784Z,0
2017-03-14T02:30:47.782Z,0
2017-03-14T02:31:47.830Z,0
2017-03-14T02:32:47.834Z,0
2017-03-14T02:33:47.886Z,0
2017-03-14T02:34:47.897Z,0
2017-03-14T02:35:48.060Z,0
2017-03-14T02:36:47.947Z,0
2017-03-14T02:37:47.960Z,0
2017-03-14T02:38:47.985Z,0
2017-03-14T02:39:48.030Z,0
2017-03-14T02:40:48.136Z,0
2017-03-14T02:41:48.064Z,0
2017-03-14T02:42:48.092Z,0
2017-03-14T02:43:48.112Z,0
2017-03-14T02:44:48.141Z,0
2017-03-14T02:45:48.269Z,0
2017-03-14T02:46:48.197Z,0
2017-03-14T02:47:48.207Z,0
2017-03-14T02:48:48.244Z,0
2017-03-14T02:49:48.259Z,0
2017-03-14T02:50:48.294Z,0
2017-03-14T02:51:48.313Z,0
2017-03-14T02:52:48.337Z,0
2017-03-14T02:53:48.365Z,0
2017-03-14T02:54:48.387Z,0
2017-03-14T02:55:48.406Z,0
2017-03-14T02:56:48.427Z,0
2017-03-14T02:57:48.450Z,0
2017-03-14T02:58:48.495Z,0
2017-03-14T02:59:48.514Z,0
2017-03-14T03:00:48.522Z,0
2017-03-14T03:01:48.566Z,0
2017-03-14T03:02:48.580Z,0
2017-03-14T03:03:48.602Z,0
2017-03-14T03:04:48.615Z,0
2017-03-14T03:05:48.674Z,0
2017-03-14T03:06:48.679Z,0
2017-03-14T03:07:48.711Z,0
2017-03-14T03:08:48.729Z,0
2017-03-14T03:09:48.763Z,0
2017-03-14T03:10:48.784Z,0
2017-03-14T03:11:48.910Z,0
2017-03-14T03:12:48.866Z,0
2017-03-14T03:13:48.856Z,0
2017-03-14T03:14:48.920Z,0
2017-03-14T03:15:48.937Z,0
2017-03-14T03:16:48.937Z,0
2017-03-14T03:17:48.955Z,0
2017-03-14T03:18:48.989Z,0
2017-03-14T03:19:49.011Z,0
2017-03-14T03:20:49.033Z,0
2017-03-14T03:21:49.068Z,0
2017-03-14T03:22:49.079Z,0
2017-03-14T03:23:49.109Z,0
2017-03-14T03:24:49.144Z,0
2017-03-14T03:25:49.167Z,0
2017-03-14T03:26:49.171Z,0
2017-03-14T03:27:49.209Z,0
2017-03-14T03:28:49.235Z,0
2017-03-14T03:29:49.262Z,0
2017-03-14T03:30:49.265Z,0
2017-03-14T03:31:49.311Z,0
2017-03-14T03:32:49.311Z,0
2017-03-14T03:33:49.378Z,0
2017-03-14T03:34:49.376Z,0
2017-03-14T03:35:49.410Z,0
2017-03-14T03:36:49.425Z,0
2017-03-14T03:37:49.468Z,0
2017-03-14T03:38:49.484Z,0
2017-03-14T03:39:49.507Z,0
2017-03-14T03:40:49.535Z,0
2017-03-14T03:41:49.544Z,0
2017-03-14T03:42:49.594Z,0
2017-03-14T03:43:49.615Z,0
2017-03-14T03:44:49.623Z,0
2017-03-14T03:45:49.664Z,0
2017-03-14T03:46:49.674Z,0
2017-03-14T03:47:49.720Z,0
2017-03-14T03:48:49.734Z,0
2017-03-14T03:49:49.764Z,0
2017-03-14T03:50:49.794Z,0
2017-03-14T03:51:49.806Z,0
2017-03-14T03:52:49.841Z,0
2017-03-14T03:53:49.856Z,0
2017-03-14T03:54:49.897Z,0
2017-03-14T03:55:49.919Z,0
2017-03-14T03:56:49.931Z,0
2017-03-14T03:57:49.951Z,0
2017-03-14T03:58:49.998Z,0
2017-03-14T03:59:50.005Z,0
2017-03-14T04:00:50.058Z,0
2017-03-14T04:01:50.069Z,0
2017-03-14T04:02:50.093Z,0
2017-03-14T04:03:50.089Z,0
2017-03-14T04:04:50.132Z,0
2017-03-14T04:05:50.153Z,0
2017-03-14T04:06:50.178Z,0
2017-03-14T04:07:50.213Z,0
2017-03-14T04:08:50.218Z,0
2017-03-14T04:09:50.262Z,0
2017-03-14T04:10:50.292Z,0
2017-03-14T04:11:50.317Z,0
2017-03-14T04:12:50.332Z,0
2017-03-14T04:13:50.360Z,0
2017-03-14T04:14:50.395Z,0
2017-03-14T04:15:50.447Z,0
2017-03-14T04:16:50.443Z,0
2017-03-14T04:17:50.469Z,0
2017-03-14T04:18:50.500Z,0
2017-03-14T04:19:50.510Z,0
2017-03-14T04:20:50.517Z,0
2017-03-14T04:21:50.563Z,0
2017-03-14T04:22:50.602Z,0
2017-03-14T04:23:50.617Z,0
2017-03-14T04:24:50.648Z,0
2017-03-14T04:25:50.644Z,0
2017-03-14T04:26:50.681Z,0
2017-03-14T04:27:50.723Z,0
2017-03-14T04:28:50.742Z,0
2017-03-14T04:29:50.763Z,0
2017-03-14T04:30:50.788Z,0
2017-03-14T04:31:50.808Z,0
2017-03-14T04:32:50.845Z,0
2017-03-14T04:33:50.866Z,0
2017-03-14T04:34:50.884Z,0
2017-03-14T04:35:50.909Z,0
2017-03-14T04:36:50.924Z,0
2017-03-14T04:37:50.968Z,0
2017-03-14T04:38:50.997Z,0
2017-03-14T04:39:51.026Z,0
2017-03-14T04:40:51.040Z,0
2017-03-14T04:41:51.077Z,0
2017-03-14T04:42:51.078Z,0
2017-03-14T04:43:51.114Z,0
2017-03-14T04:44:51.146Z,0
2017-03-14T04:45:51.197Z,0
2017-03-14T04:46:51.191Z,0
2017-03-14T04:47:51.201Z,0
2017-03-14T04:48:51.245Z,0
2017-03-14T04:49:51.277Z,0
2017-03-14T04:50:51.294Z,0
2017-03-14T04:51:51.323Z,0
2017-03-14T04:52:51.346Z,0
2017-03-14T04:53:51.412Z,0
2017-03-14T04:54:51.391Z,0
2017-03-14T04:55:51.426Z,0
2017-03-14T04:56:51.433Z,0
2017-03-14T04:57:51.472Z,0
2017-03-14T04:58:51.493Z,0
2017-03-14T04:59:51.528Z,0
2017-03-14T05:00:51.563Z,0
2017-03-14T05:01:51.574Z,0
2017-03-14T05:02:51.591Z,0
2017-03-14T05:03:51.613Z,0
2017-03-14T05:04:51.634Z,0
2017-03-14T05:05:51.664Z,0
2017-03-14T05:06:51.695Z,0
2017-03-14T05:07:51.731Z,0
2017-03-14T05:08:51.737Z,0
2017-03-14T05:09:51.772Z,0
2017-03-14T05:10:51.795Z,0
2017-03-14T05:11:51.825Z,0
2017-03-14T05:12:51.853Z,0
2017-03-14T05:13:51.879Z,0
2017-03-14T05:14:51.901Z,0
2017-03-14T05:15:52.006Z,0
2017-03-14T05:16:51.950Z,0
2017-03-14T05:17:52.017Z,0
2017-03-14T05:18:52.038Z,0
2017-03-14T05:19:52.033Z,0
2017-03-14T05:20:52.134Z,0
2017-03-14T05:21:52.073Z,0
2017-03-14T05:22:52.107Z,0
2017-03-14T05:23:52.124Z,5
2017-03-14T05:24:52.195Z,5
2017-03-14T05:25:52.324Z,5
2017-03-14T05:26:52.227Z,5
2017-03-14T05:27:52.222Z,5
2017-03-14T05:28:52.266Z,5
2017-03-14T05:29:52.266Z,5
2017-03-14T05:30:52.419Z,5
2017-03-14T05:31:52.335Z,10
2017-03-14T05:32:52.369Z,10
2017-03-14T05:33:52.396Z,10
2017-03-14T05:34:52.398Z,10
2017-03-14T05:35:52.427Z,15
2017-03-14T05:36:52.456Z,15
2017-03-14T05:37:52.486Z,15
2017-03-14T05:38:52.500Z,20
2017-03-14T05:39:52.535Z,20
2017-03-14T05:40:52.557Z,25
2017-03-14T05:41:52.591Z,25
2017-03-14T05:42:52.601Z,25
2017-03-14T05:43:52.646Z,30
2017-03-14T05:44:52.670Z,30
2017-03-14T05:45:52.682Z,30
2017-03-14T05:46:52.724Z,30
2017-03-14T05:47:52.746Z,35
2017-03-14T05:48:52.769Z,35
2017-03-14T05:49:52.807Z,35
2017-03-14T05:50:52.814Z,35
2017-03-14T05:51:52.858Z,35
2017-03-14T05:52:52.870Z,35
2017-03-14T05:53:52.896Z,35
2017-03-14T05:54:52.935Z,35
2017-03-14T05:55:52.953Z,35
2017-03-14T05:56:52.963Z,40
2017-03-14T05:57:53.005Z,40
2017-03-14T05:58:53.033Z,35
2017-03-14T05:59:53.057Z,35
2017-03-14T06:00:53.088Z,35
2017-03-14T06:01:53.098Z,35
2017-03-14T06:02:53.128Z,35
2017-03-14T06:03:53.154Z,35
2017-03-14T06:04:53.182Z,35
2017-03-14T06:05:53.241Z,35
2017-03-14T06:06:53.246Z,35
2017-03-14T06:07:53.249Z,35
2017-03-14T06:08:53.287Z,35
2017-03-14T06:09:53.322Z,40
2017-03-14T06:10:53.335Z,40
2017-03-14T06:11:53.369Z,40
2017-03-14T06:12:53.390Z,40
2017-03-14T06:13:53.411Z,45
2017-03-14T06:14:53.442Z,40
2017-03-14T06:15:53.467Z,45
2017-03-14T06:16:53.474Z,45
2017-03-14T06:17:53.536Z,50
2017-03-14T06:18:53.525Z,50
2017-03-14T06:19:53.576Z,50
2017-03-14T06:20:53.604Z,45
2017-03-14T06:21:53.624Z,45
2017-03-14T06:22:53.637Z,45
2017-03-14T06:23:53.670Z,45
2017-03-14T06:24:53.696Z,40
2017-03-14T06:25:53.727Z,35
2017-03-14T06:26:53.740Z,35
2017-03-14T06:27:53.770Z,35
2017-03-14T06:28:53.799Z,40
2017-03-14T06:29:53.813Z,40
2017-03-14T06:30:53.849Z,40
2017-03-14T06:31:53.876Z,40
2017-03-14T06:32:53.920Z,45
2017-03-14T06:33:53.942Z,45
2017-03-14T06:34:53.962Z,45
2017-03-14T06:35:53.992Z,45
2017-03-14T06:36:54.011Z,45
2017-03-14T06:37:54.080Z,45
2017-03-14T06:38:54.057Z,45
2017-03-14T06:39:54.092Z,45
2017-03-14T06:40:54.218Z,50
2017-03-14T06:41:54.124Z,45
2017-03-14T06:42:54.171Z,50
2017-03-14T06:43:54.187Z,50
2017-03-14T06:44:54.224Z,45
2017-03-14T06:45:54.343Z,50
2017-03-14T06:46:54.280Z,55
2017-03-14T06:47:54.312Z,60
2017-03-14T06:48:54.322Z,60
2017-03-14T06:49:54.350Z,70
2017-03-14T06:50:54.631Z,75
2017-03-14T06:51:54.405Z,80
2017-03-14T06:52:54.428Z,80
2017-03-14T06:53:54.452Z,75
2017-03-14T06:54:54.487Z,80
2017-03-14T06:55:54.521Z,85
2017-03-14T06:56:54.531Z,85
2017-03-14T06:57:54.562Z,85
2017-03-14T06:58:54.587Z,90
2017-03-14T06:59:54.623Z,85
2017-03-14T07:00:54.621Z,85
2017-03-14T07:01:54.663Z,90
2017-03-14T07:02:54.682Z,90
2017-03-14T07:03:54.720Z,95
2017-03-14T07:04:54.745Z,90
2017-03-14T07:05:54.784Z,95
2017-03-14T07:06:54.806Z,105
2017-03-14T07:07:54.805Z,115
2017-03-14T07:08:54.838Z,115
2017-03-14T07:09:54.876Z,120
2017-03-14T07:10:54.907Z,115
2017-03-14T07:11:54.930Z,120
2017-03-14T07:12:54.954Z,125
2017-03-14T07:13:54.992Z,130
2017-03-14T07:14:55.011Z,135
2017-03-14T07:15:55.034Z,140
2017-03-14T07:16:55.048Z,150
2017-03-14T07:17:55.084Z,150
2017-03-14T07:18:55.124Z,150
2017-03-14T07:19:55.137Z,165
2017-03-14T07:20:55.762Z,165
2017-03-14T07:21:55.770Z,160
2017-03-14T07:22:55.843Z,150
2017-03-14T07:23:55.843Z,160
2017-03-14T07:24:55.848Z,160
2017-03-14T07:25:55.896Z,160
2017-03-14T07:26:55.906Z,155
2017-03-14T07:27:55.955Z,155
2017-03-14T07:28:55.968Z,160
2017-03-14T07:29:55.976Z,160
2017-03-14T07:30:56.031Z,160
2017-03-14T07:31:56.050Z,155
2017-03-14T07:32:56.076Z,160
2017-03-14T07:33:56.109Z,160
2017-03-14T07:34:56.134Z,165
2017-03-14T07:35:56.164Z,170
2017-03-14T07:36:56.192Z,175
2017-03-14T07:37:56.208Z,170
2017-03-14T07:38:56.235Z,160
2017-03-14T07:39:56.245Z,150
2017-03-14T07:40:56.294Z,145
2017-03-14T07:41:56.299Z,145
2017-03-14T07:42:56.345Z,140
2017-03-14T07:43:56.379Z,135
2017-03-14T07:44:56.381Z,125
2017-03-14T07:45:56.423Z,135
2017-03-14T07:46:56.448Z,135
2017-03-14T07:47:56.478Z,145
2017-03-14T07:48:56.512Z,145
2017-03-14T07:49:56.524Z,145
2017-03-14T07:50:56.583Z,150
2017-03-14T07:51:56.582Z,145
2017-03-14T07:52:56.602Z,140
2017-03-14T07:53:56.641Z,145
2017-03-14T07:54:56.662Z,140
2017-03-14T07:55:56.708Z,130
2017-03-14T07:56:56.732Z,135
2017-03-14T07:57:56.777Z,150
2017-03-14T07:58:56.777Z,165
2017-03-14T07:59:56.810Z,165
2017-03-14T08:00:56.935Z,165
2017-03-14T08:01:56.850Z,165
2017-03-14T08:02:56.881Z,180
2017-03-14T08:03:56.894Z,195
2017-03-14T08:04:56.923Z,210
2017-03-14T08:05:57.064Z,210
2017-03-14T08:06:56.995Z,185
2017-03-14T08:07:57.005Z,180
2017-03-14T08:08:57.043Z,160
2017-03-14T08:09:57.085Z,150
2017-03-14T08:10:57.374Z,140
2017-03-14T08:11:57.129Z,160
2017-03-14T08:12:57.145Z,160
2017-03-14T08:13:57.183Z,160
2017-03-14T08:14:57.211Z,150
2017-03-14T08:15:57.218Z,165
2017-03-14T08:16:57.259Z,165
2017-03-14T08:17:57.288Z,165
2017-03-14T08:18:57.313Z,185
2017-03-14T08:19:57.344Z,190
2017-03-14T08:20:57.669Z,215
2017-03-14T08:21:57.446Z,210
2017-03-14T08:22:57.424Z,190
2017-03-14T08:23:57.443Z,190
2017-03-14T08:24:57.485Z,205
2017-03-14T08:25:57.517Z,200
2017-03-14T08:26:57.557Z,195
2017-03-14T08:27:57.543Z,170
2017-03-14T08:28:57.592Z,180
2017-03-14T08:29:57.630Z,175
2017-03-14T08:30:57.656Z,165
2017-03-14T08:31:57.672Z,170
2017-03-14T08:32:57.682Z,185
2017-03-14T08:33:57.726Z,155
2017-03-14T08:34:57.762Z,130
2017-03-14T08:35:57.801Z,135
2017-03-14T08:36:57.815Z,130
2017-03-14T08:37:57.827Z,120
2017-03-14T08:38:57.891Z,125
2017-03-14T08:39:57.906Z,160
2017-03-14T08:40:57.912Z,210
2017-03-14T08:41:57.961Z,175
2017-03-14T08:42:57.965Z,180
2017-03-14T08:43:57.999Z,200
2017-03-14T08:44:58.023Z,265
2017-03-14T08:45:58.060Z,330
2017-03-14T08:46:58.075Z,255
2017-03-14T08:47:58.085Z,250
2017-03-14T08:48:58.121Z,280
2017-03-14T08:49:58.151Z,275
2017-03-14T08:50:58.197Z,255
2017-03-14T08:51:58.216Z,215
2017-03-14T08:52:58.234Z,180
2017-03-14T08:53:58.267Z,190
2017-03-14T08:54:58.288Z,210
2017-03-14T08:55:58.341Z,245
2017-03-14T08:56:58.351Z,230
2017-03-14T08:57:58.381Z,260
2017-03-14T08:59:58.438Z,375
2017-03-14T09:00:58.470Z,505
2017-03-14T09:01:58.471Z,620
2017-03-14T09:02:58.513Z,720
2017-03-14T09:03:58.544Z,1185
2017-03-14T09:04:58.584Z,585
2017-03-14T09:05:58.601Z,530
2017-03-14T09:06:58.638Z,410
2017-03-14T09:07:58.661Z,380
2017-03-14T09:08:58.672Z,400
2017-03-14T09:09:58.702Z,410
2017-03-14T09:10:58.752Z,450
2017-03-14T09:11:58.755Z,520
2017-03-14T09:12:58.799Z,505
2017-03-14T09:13:58.834Z,425
2017-03-14T09:14:58.862Z,455
2017-03-14T09:15:58.897Z,495
2017-03-14T09:16:58.912Z,495
2017-03-14T09:17:58.939Z,440
2017-03-14T09:18:58.978Z,390
2017-03-14T09:19:59.002Z,385
2017-03-14T09:20:59.035Z,420
2017-03-14T09:21:59.071Z,430
2017-03-14T09:22:59.078Z,420
2017-03-14T09:23:59.141Z,385
2017-03-14T09:24:59.150Z,380
2017-03-14T09:25:59.173Z,415
2017-03-14T09:26:59.206Z,460
2017-03-14T09:27:59.239Z,455
2017-03-14T09:28:59.259Z,410
2017-03-14T09:29:59.300Z,415
2017-03-14T09:30:59.330Z,455
2017-03-14T09:31:59.364Z,435
2017-03-14T09:32:59.400Z,450
2017-03-14T09:33:59.410Z,465
2017-03-14T09:34:59.451Z,450
2017-03-14T09:35:59.483Z,445
2017-03-14T09:36:59.546Z,430
2017-03-14T09:37:59.537Z,405
2017-03-14T09:38:59.590Z,395
2017-03-14T09:39:59.605Z,375
2017-03-14T09:40:59.635Z,350
2017-03-14T09:41:59.649Z,365
2017-03-14T09:42:59.690Z,360
2017-03-14T09:43:59.718Z,345
2017-03-14T09:44:59.296Z,325
2017-03-14T09:45:59.792Z,340
2017-03-14T09:46:59.825Z,355
2017-03-14T09:47:59.848Z,355
2017-03-14T09:48:59.866Z,350
2017-03-14T09:49:59.905Z,370
2017-03-14T09:50:59.938Z,390
2017-03-14T09:51:59.997Z,395
2017-03-14T09:53:00.016Z,380
2017-03-14T09:54:00.020Z,390
2017-03-14T09:55:00.054Z,400
2017-03-14T09:56:00.084Z,400
2017-03-14T09:57:00.110Z,405
2017-03-14T09:58:00.148Z,430
2017-03-14T09:59:00.169Z,420
2017-03-14T10:00:00.244Z,425
2017-03-14T10:01:00.227Z,440
2017-03-14T10:02:00.251Z,440
2017-03-14T10:03:00.293Z,430
2017-03-14T10:04:00.342Z,420
2017-03-14T10:05:00.386Z,415
2017-03-14T10:06:00.386Z,430
2017-03-14T10:07:00.407Z,450
2017-03-14T10:08:00.457Z,450
2017-03-14T10:09:00.474Z,450
2017-03-14T10:10:00.494Z,455
2017-03-14T10:11:00.529Z,455
2017-03-14T10:12:00.559Z,440
2017-03-14T10:13:00.603Z,430
2017-03-14T10:14:00.630Z,425
2017-03-14T10:15:00.656Z,420
2017-03-14T10:16:00.689Z,405
2017-03-14T10:17:00.719Z,405
2017-03-14T10:18:00.761Z,395
2017-03-14T10:19:00.779Z,390
2017-03-14T10:20:00.797Z,395
2017-03-14T10:21:00.834Z,400
2017-03-14T10:22:00.875Z,415
2017-03-14T10:23:00.580Z,450
2017-03-14T10:24:00.598Z,470
2017-03-14T10:25:00.614Z,490
2017-03-14T10:26:00.657Z,520
2017-03-14T10:27:00.687Z,490
2017-03-14T10:28:00.720Z,450
2017-03-14T10:29:00.752Z,445
2017-03-14T10:30:00.763Z,480
2017-03-14T10:31:00.827Z,500
2017-03-14T10:32:00.829Z,455
2017-03-14T10:33:00.874Z,440
2017-03-14T10:34:00.907Z,445
2017-03-14T10:35:00.932Z,435
2017-03-14T10:36:00.960Z,450
2017-03-14T10:37:00.980Z,515
2017-03-14T10:38:01.024Z,730
2017-03-14T10:39:01.025Z,855
2017-03-14T10:40:01.073Z,730
2017-03-14T10:41:01.117Z,785
2017-03-14T10:42:01.158Z,525
2017-03-14T10:43:01.173Z,465
2017-03-14T10:44:01.234Z,535
2017-03-14T10:45:01.218Z,605
2017-03-14T10:46:01.260Z,585
2017-03-14T10:47:01.294Z,715
2017-03-14T10:48:01.317Z,825
2017-03-14T10:49:01.352Z,695
2017-03-14T10:50:01.389Z,605
2017-03-14T10:51:01.429Z,595
2017-03-14T10:52:01.458Z,580
2017-03-14T10:53:01.476Z,525
2017-03-14T10:54:01.517Z,625
2017-03-14T10:55:01.626Z,615
2017-03-14T10:56:01.574Z,575
2017-03-14T10:57:01.621Z,590
2017-03-14T10:58:01.647Z,655
2017-03-14T10:59:01.669Z,620
2017-03-14T11:00:01.736Z,695
2017-03-14T11:01:01.728Z,815
2017-03-14T11:02:01.767Z,745
2017-03-14T11:03:01.804Z,600
2017-03-14T11:04:01.814Z,505
2017-03-14T11:05:01.853Z,505
2017-03-14T11:06:01.908Z,515
2017-03-14T11:07:01.925Z,505
2017-03-14T11:08:01.977Z,525
2017-03-14T11:09:01.990Z,510
2017-03-14T11:10:02.025Z,490
2017-03-14T11:11:02.065Z,440
2017-03-14T11:12:02.103Z,450
2017-03-14T11:13:02.118Z,445
2017-03-14T11:14:02.158Z,425
2017-03-14T11:15:02.173Z,420
2017-03-14T11:16:02.325Z,390
2017-03-14T11:17:02.248Z,400
2017-03-14T11:18:02.289Z,370
2017-03-14T11:19:02.314Z,395
2017-03-14T11:20:02.339Z,425
2017-03-14T11:21:02.472Z,450
2017-03-14T11:22:02.395Z,475
2017-03-14T11:23:02.412Z,420
2017-03-14T11:24:02.473Z,410
2017-03-14T11:25:02.508Z,410
2017-03-14T11:26:02.668Z,430
2017-03-14T11:27:02.574Z,435
2017-03-14T11:28:02.607Z,450
2017-03-14T11:29:02.623Z,420
2017-03-14T11:30:02.667Z,415
2017-03-14T11:31:02.703Z,390
2017-03-14T11:32:02.729Z,375
2017-03-14T11:33:02.764Z,430
2017-03-14T11:34:02.793Z,505
2017-03-14T11:35:02.821Z,520
2017-03-14T11:36:02.831Z,570
2017-03-14T11:37:02.892Z,520
2017-03-14T11:38:02.927Z,590
2017-03-14T11:39:02.968Z,580
2017-03-14T11:40:02.978Z,570
2017-03-14T11:41:03.009Z,555
2017-03-14T11:42:03.053Z,510
2017-03-14T11:43:03.083Z,510
2017-03-14T11:44:03.113Z,470
2017-03-14T11:45:03.220Z,445
2017-03-14T11:46:03.187Z,405
2017-03-14T11:47:03.202Z,380
2017-03-14T11:48:03.226Z,315
2017-03-14T11:49:03.265Z,330
2017-03-14T11:50:03.639Z,310
2017-03-14T11:51:03.349Z,300
2017-03-14T11:52:03.379Z,310
2017-03-14T11:53:03.397Z,330
2017-03-14T11:54:03.461Z,300
2017-03-14T11:55:03.468Z,275
2017-03-14T11:56:03.476Z,285
2017-03-14T11:57:03.551Z,255
2017-03-14T11:58:03.558Z,220
2017-03-14T11:59:03.585Z,255
2017-03-14T12:00:03.615Z,290
2017-03-14T12:01:03.638Z,310
2017-03-14T12:02:03.697Z,290
2017-03-14T12:03:03.928Z,310
2017-03-14T12:04:03.733Z,290
2017-03-14T12:05:03.749Z,255
2017-03-14T12:06:03.851Z,250
2017-03-14T12:07:03.860Z,235
2017-03-14T12:08:03.841Z,220
2017-03-14T12:09:03.918Z,250
2017-03-14T12:10:03.954Z,280
2017-03-14T12:11:04.001Z,300
2017-03-14T12:12:04.013Z,250
2017-03-14T12:13:04.253Z,210
2017-03-14T12:14:04.058Z,215
2017-03-14T12:15:04.102Z,275
2017-03-14T12:16:04.133Z,310
2017-03-14T12:17:04.164Z,280
2017-03-14T12:18:04.196Z,260
2017-03-14T12:19:04.224Z,265
2017-03-14T12:20:04.240Z,245
2017-03-14T12:21:04.270Z,270
2017-03-14T12:22:04.325Z,330
2017-03-14T12:23:04.661Z,335
2017-03-14T12:24:04.394Z,330
2017-03-14T12:25:04.452Z,320
2017-03-14T12:26:04.432Z,305
2017-03-14T12:27:04.460Z,290
2017-03-14T12:28:04.526Z,320
2017-03-14T12:29:04.526Z,300
2017-03-14T12:30:04.829Z,290
2017-03-14T12:31:04.597Z,315
2017-03-14T12:32:04.635Z,330
2017-03-14T12:33:04.653Z,380
2017-03-14T12:34:04.713Z,405
2017-03-14T12:35:04.717Z,425
2017-03-14T12:36:04.753Z,420
2017-03-14T12:37:04.804Z,415
2017-03-14T12:38:05.049Z,430
2017-03-14T12:39:04.898Z,420
2017-03-14T12:40:04.887Z,405
2017-03-14T12:41:04.905Z,415
2017-03-14T12:42:04.937Z,415
2017-03-14T12:43:04.978Z,380
2017-03-14T12:44:04.988Z,345
2017-03-14T12:45:05.036Z,315
2017-03-14T12:46:05.067Z,255
2017-03-14T12:47:05.095Z,215
2017-03-14T12:48:05.341Z,195
2017-03-14T12:49:05.160Z,175
2017-03-14T12:50:05.185Z,170
2017-03-14T12:51:05.187Z,155
2017-03-14T12:52:05.260Z,135
2017-03-14T12:53:05.296Z,135
2017-03-14T12:54:05.339Z,165
2017-03-14T12:55:05.336Z,175
2017-03-14T12:56:05.393Z,190
2017-03-14T12:57:05.421Z,195
2017-03-14T12:58:05.448Z,205
2017-03-14T12:59:05.491Z,210
2017-03-14T13:00:05.513Z,205
2017-03-14T13:01:05.545Z,230
2017-03-14T13:02:05.537Z,295
2017-03-14T13:03:05.590Z,340
2017-03-14T13:04:05.637Z,355
2017-03-14T13:05:05.668Z,370
2017-03-14T13:06:05.702Z,385
2017-03-14T13:07:05.749Z,405
2017-03-14T13:08:05.737Z,415
2017-03-14T13:09:05.807Z,405
2017-03-14T13:10:05.826Z,405
2017-03-14T13:11:05.869Z,400
2017-03-14T13:12:05.894Z,375
2017-03-14T13:13:05.934Z,330
2017-03-14T13:14:05.942Z,300
2017-03-14T13:15:05.993Z,290
2017-03-14T13:16:06.017Z,250
2017-03-14T13:17:06.038Z,250
2017-03-14T13:18:06.079Z,285
2017-03-14T13:19:06.126Z,265
2017-03-14T13:20:06.148Z,230
2017-03-14T13:21:06.187Z,230
2017-03-14T13:22:06.194Z,265
2017-03-14T13:23:06.213Z,260
2017-03-14T13:24:06.285Z,270
2017-03-14T13:25:06.292Z,310
2017-03-14T13:26:06.337Z,335
2017-03-14T13:27:06.364Z,340
2017-03-14T13:28:06.405Z,335
2017-03-14T13:29:06.433Z,330
2017-03-14T13:30:06.461Z,325
2017-03-14T13:31:06.494Z,310
2017-03-14T13:32:06.527Z,295
2017-03-14T13:33:06.543Z,285
2017-03-14T13:34:06.594Z,285
2017-03-14T13:35:06.627Z,270
2017-03-14T13:36:06.667Z,250
2017-03-14T13:37:06.687Z,245
2017-03-14T13:38:06.725Z,250
2017-03-14T13:39:06.759Z,235
2017-03-14T13:40:06.801Z,205
2017-03-14T13:41:06.817Z,190
2017-03-14T13:42:06.860Z,180
2017-03-14T13:43:06.888Z,180
2017-03-14T13:44:06.914Z,190
2017-03-14T13:45:06.971Z,195
2017-03-14T13:46:06.975Z,205
2017-03-14T13:47:06.985Z,210
2017-03-14T13:48:07.041Z,205
2017-03-14T13:49:07.078Z,200
2017-03-14T13:50:07.104Z,205
2017-03-14T13:51:07.132Z,190
2017-03-14T13:52:07.159Z,180
2017-03-14T13:53:07.186Z,195
2017-03-14T13:54:07.239Z,205
2017-03-14T13:55:07.255Z,185
2017-03-14T13:56:07.288Z,165
2017-03-14T13:57:07.333Z,175
2017-03-14T13:58:07.350Z,205
2017-03-14T13:59:07.379Z,215
2017-03-14T14:00:07.641Z,225
2017-03-14T14:01:07.444Z,210
2017-03-14T14:02:07.481Z,190
2017-03-14T14:03:07.518Z,205
2017-03-14T14:04:07.549Z,200
2017-03-14T14:05:07.610Z,235
2017-03-14T14:06:07.622Z,250
2017-03-14T14:07:07.644Z,275
2017-03-14T14:08:07.666Z,280
2017-03-14T14:09:07.709Z,280
2017-03-14T14:10:07.719Z,290
2017-03-14T14:11:07.763Z,305
2017-03-14T14:12:07.794Z,320
2017-03-14T14:13:07.832Z,320
2017-03-14T14:14:07.842Z,300